createdAt,value
2023-05-12T00:00:27.834Z,15.57
2023-05-12T00:03:12.008Z,12.82
2023-05-12T00:05:39.102Z,17.60
2023-05-12T00:08:06.487Z,13.00
2023-05-12T00:10:35.458Z,11.95
2023-05-12T00:13:03.020Z,14.35
2023-05-12T00:15:30.136Z,9.10
2023-05-12T00:17:57.713Z,10.50
2023-05-12T00:20:24.801Z,11.90
2023-05-12T00:22:52.248Z,10.07
2023-05-12T00:25:19.319Z,9.35
2023-05-12T00:27:46.687Z,8.60
2023-05-12T00:30:14.192Z,8.05
2023-05-12T00:32:41.538Z,10.30
2023-05-12T00:35:09.163Z,7.22
2023-05-12T00:37:36.706Z,13.18
2023-05-12T00:40:05.011Z,7.82
2023-05-12T00:42:34.869Z,11.18
2023-05-12T00:45:02.689Z,9.77
2023-05-12T00:47:30.413Z,8.70
2023-05-12T00:49:57.468Z,8.68
2023-05-12T00:52:25.006Z,8.55
2023-05-12T00:54:52.088Z,8.45
2023-05-12T00:57:22.755Z,7.72
2023-05-12T00:59:50.652Z,7.53
2023-05-12T01:02:18.221Z,7.75
2023-05-12T01:04:45.696Z,7.13
2023-05-12T01:07:21.023Z,8.82
2023-05-12T01:09:53.383Z,9.70
2023-05-12T01:12:21.517Z,8.50
2023-05-12T01:14:49.281Z,9.93
2023-05-12T01:17:21.177Z,8.48
2023-05-12T01:19:54.641Z,6.80
2023-05-12T01:22:22.711Z,8.55
2023-05-12T01:24:56.767Z,11.05
2023-05-12T01:27:27.600Z,10.30
2023-05-12T01:29:58.980Z,11.55
2023-05-12T01:32:27.286Z,11.82
2023-05-12T01:34:54.382Z,8.88
2023-05-12T01:37:25.140Z,11.75
2023-05-12T01:39:52.866Z,8.30
2023-05-12T01:42:21.683Z,12.40
2023-05-12T01:44:49.779Z,7.53
2023-05-12T01:47:17.557Z,8.45
2023-05-12T01:49:54.290Z,9.07
2023-05-12T01:52:21.699Z,10.77
2023-05-12T01:54:48.808Z,9.10
2023-05-12T01:57:16.163Z,8.75
2023-05-12T01:59:43.471Z,8.25
2023-05-12T02:02:12.313Z,8.35
2023-05-12T02:04:39.735Z,13.88
2023-05-12T02:07:07.334Z,7.95
2023-05-12T02:09:34.833Z,11.27
2023-05-12T02:12:04.328Z,7.47
2023-05-12T02:14:31.506Z,7.75
2023-05-12T02:16:59.249Z,9.63
2023-05-12T02:19:26.428Z,9.93
2023-05-12T02:21:54.752Z,9.20
2023-05-12T02:24:21.954Z,11.65
2023-05-12T02:26:49.731Z,9.48
2023-05-12T02:29:16.771Z,8.38
2023-05-12T02:31:44.220Z,11.80
2023-05-12T02:34:16.130Z,8.00
2023-05-12T02:36:43.580Z,8.65
2023-05-12T02:39:12.077Z,8.82
2023-05-12T02:41:39.872Z,9.13
2023-05-12T02:44:06.940Z,9.82
2023-05-12T02:46:34.424Z,17.77
2023-05-12T02:49:01.481Z,8.65
2023-05-12T02:51:29.038Z,9.02
2023-05-12T02:53:56.177Z,7.85
2023-05-12T02:56:23.515Z,8.13
2023-05-12T02:58:50.756Z,8.32
2023-05-12T03:01:18.173Z,10.25
2023-05-12T03:03:45.493Z,8.70
2023-05-12T03:06:13.195Z,9.70
2023-05-12T03:08:40.383Z,9.05
2023-05-12T03:11:08.143Z,7.90
2023-05-12T03:13:35.428Z,10.35
2023-05-12T03:16:02.987Z,9.75
2023-05-12T03:18:31.588Z,9.82
2023-05-12T03:20:59.211Z,8.38
2023-05-12T03:23:26.696Z,8.73
2023-05-12T03:25:55.740Z,9.57
2023-05-12T03:28:24.643Z,7.57
2023-05-12T03:30:52.326Z,12.88
2023-05-12T03:33:19.371Z,9.10
2023-05-12T03:35:47.647Z,9.98
2023-05-12T03:38:14.794Z,10.02
2023-05-12T03:40:42.162Z,9.75
2023-05-12T03:43:09.192Z,13.27
2023-05-12T03:45:36.590Z,7.90
2023-05-12T03:48:03.755Z,12.13
2023-05-12T03:50:31.086Z,14.13
2023-05-12T03:52:58.187Z,8.73
2023-05-12T03:55:25.445Z,14.77
2023-05-12T03:57:53.036Z,13.10
2023-05-12T04:00:20.820Z,9.10
2023-05-12T04:02:48.025Z,7.97
2023-05-12T04:05:16.201Z,12.90
2023-05-12T04:07:43.448Z,9.38
2023-05-12T04:10:10.869Z,11.40
2023-05-12T04:12:38.032Z,12.27
2023-05-12T04:15:06.294Z,9.68
2023-05-12T04:17:33.593Z,8.95
2023-05-12T04:20:00.951Z,9.02
2023-05-12T04:22:27.974Z,7.53
2023-05-12T04:24:55.476Z,9.32
2023-05-12T04:27:23.554Z,8.07
2023-05-12T04:29:51.680Z,10.80
2023-05-12T04:32:18.704Z,9.05
2023-05-12T04:34:48.120Z,8.00
2023-05-12T04:37:15.191Z,8.68
2023-05-12T04:39:42.961Z,9.25
2023-05-12T04:42:10.077Z,8.05
2023-05-12T04:44:37.892Z,7.68
2023-05-12T04:47:06.051Z,11.10
2023-05-12T04:49:33.420Z,11.32
2023-05-12T04:52:00.488Z,12.35
2023-05-12T04:54:28.100Z,11.55
2023-05-12T04:56:56.224Z,12.95
2023-05-12T04:59:24.560Z,10.32
2023-05-12T05:01:53.554Z,11.57
2023-05-12T05:04:21.068Z,12.25
2023-05-12T05:06:48.350Z,9.88
2023-05-12T05:09:16.098Z,8.85
2023-05-12T05:11:43.203Z,8.27
2023-05-12T05:14:11.082Z,8.73
2023-05-12T05:16:39.388Z,11.85
2023-05-12T05:19:12.158Z,12.55
2023-05-12T05:21:48.127Z,8.80
2023-05-12T05:24:15.458Z,9.35
2023-05-12T05:26:42.543Z,7.57
2023-05-12T05:29:09.930Z,23.60
2023-05-12T05:31:37.165Z,79.88
2023-05-12T05:34:04.660Z,17.05
2023-05-12T05:36:31.912Z,16.45
2023-05-12T05:38:59.563Z,6.30
2023-05-12T05:41:26.790Z,12.60
2023-05-12T05:43:54.399Z,27.88
2023-05-12T05:46:21.498Z,15.18
2023-05-12T05:48:49.238Z,9.15
2023-05-12T05:51:17.244Z,9.35
2023-05-12T05:53:44.835Z,6.93
2023-05-12T05:56:13.557Z,8.95
2023-05-12T05:58:41.592Z,11.70
2023-05-12T06:01:08.901Z,7.55
2023-05-12T06:03:36.469Z,7.22
2023-05-12T06:06:04.420Z,13.45
2023-05-12T06:08:31.716Z,10.75
2023-05-12T06:10:59.160Z,10.50
2023-05-12T06:13:26.713Z,8.13
2023-05-12T06:15:54.552Z,9.50
2023-05-12T06:18:22.835Z,7.40
2023-05-12T06:20:51.022Z,9.82
2023-05-12T06:23:18.326Z,10.98
2023-05-12T06:25:49.387Z,10.60
2023-05-12T06:28:16.878Z,7.45
2023-05-12T06:30:44.389Z,9.27
2023-05-12T06:33:11.823Z,11.05
2023-05-12T06:35:38.976Z,9.73
2023-05-12T06:38:06.496Z,10.80
2023-05-12T06:40:33.643Z,8.02
2023-05-12T06:43:01.222Z,5.03
2023-05-12T06:45:28.264Z,9.10
2023-05-12T06:47:57.686Z,7.03
2023-05-12T06:50:27.756Z,7.90
2023-05-12T06:52:55.123Z,5.97
2023-05-12T06:55:22.977Z,11.45
2023-05-12T06:57:55.637Z,9.23
2023-05-12T07:00:26.464Z,8.57
2023-05-12T07:02:54.040Z,9.95
2023-05-12T07:05:21.720Z,9.45
2023-05-12T07:07:49.367Z,9.93
2023-05-12T07:10:16.461Z,17.08
2023-05-12T07:12:44.152Z,21.52
2023-05-12T07:15:11.478Z,12.18
2023-05-12T07:17:38.943Z,7.97
2023-05-12T07:20:07.193Z,7.35
2023-05-12T07:22:35.141Z,8.93
2023-05-12T07:25:03.754Z,7.82
2023-05-12T07:27:31.730Z,8.38
2023-05-12T07:29:58.718Z,8.23
2023-05-12T07:32:27.065Z,10.70
2023-05-12T07:34:54.138Z,9.88
2023-05-12T07:37:21.557Z,10.88
2023-05-12T07:39:48.579Z,6.72
2023-05-12T07:42:16.168Z,5.25
2023-05-12T07:44:43.300Z,5.57
2023-05-12T07:47:10.772Z,10.13
2023-05-12T07:49:37.842Z,6.57
2023-05-12T07:52:05.679Z,6.40
2023-05-12T07:54:32.822Z,5.82
2023-05-12T07:57:00.588Z,8.77
2023-05-12T07:59:27.761Z,6.28
2023-05-12T08:01:55.207Z,8.88
2023-05-12T08:04:22.437Z,7.82
2023-05-12T08:06:49.713Z,10.43
2023-05-12T08:09:16.832Z,6.65
2023-05-12T08:11:46.640Z,6.88
2023-05-12T08:14:15.350Z,6.80
2023-05-12T08:16:45.498Z,9.38
2023-05-12T08:19:13.874Z,14.60
2023-05-12T08:21:41.366Z,6.88
2023-05-12T08:24:08.616Z,5.03
2023-05-12T08:26:35.983Z,10.02
2023-05-12T08:29:04.717Z,5.80
2023-05-12T08:31:32.647Z,7.03
2023-05-12T08:34:09.740Z,5.60
2023-05-12T08:36:39.574Z,8.68
2023-05-12T08:39:10.067Z,9.43
2023-05-12T08:41:52.150Z,15.52
2023-05-12T08:44:19.964Z,8.32
2023-05-12T08:46:48.521Z,9.15
2023-05-12T08:49:20.972Z,5.53
2023-05-12T08:51:57.358Z,6.25
2023-05-12T08:54:28.289Z,5.20
2023-05-12T08:59:27.608Z,7.53
2023-05-12T09:01:56.443Z,14.07
2023-05-12T09:04:23.550Z,8.32
2023-05-12T09:06:54.352Z,6.45
2023-05-12T09:09:25.368Z,6.20
2023-05-12T09:11:57.095Z,6.78
2023-05-12T09:14:25.953Z,10.70
2023-05-12T09:16:59.933Z,14.70
2023-05-12T09:19:27.212Z,12.82
2023-05-12T09:21:54.735Z,8.30
2023-05-12T09:24:33.348Z,9.95
2023-05-12T09:27:01.166Z,10.57
2023-05-12T09:29:31.856Z,6.93
2023-05-12T09:32:02.839Z,6.43
2023-05-12T09:34:41.195Z,15.20
2023-05-12T09:37:09.089Z,7.53
2023-05-12T09:39:36.697Z,11.68
2023-05-12T09:42:04.368Z,9.25
2023-05-12T09:44:32.379Z,7.00
2023-05-12T09:47:07.417Z,5.40
2023-05-12T09:49:34.487Z,6.07
2023-05-12T09:52:04.203Z,6.10
2023-05-12T09:54:32.583Z,5.80
2023-05-12T09:57:02.473Z,13.85
2023-05-12T09:59:36.520Z,12.68
2023-05-12T10:02:06.798Z,6.40
2023-05-12T10:04:51.003Z,17.15
2023-05-12T10:07:22.959Z,6.85
2023-05-12T10:09:50.413Z,7.88
2023-05-12T10:12:17.809Z,8.20
2023-05-12T10:14:45.880Z,6.70
2023-05-12T10:17:14.330Z,7.03
2023-05-12T10:19:42.224Z,5.43
2023-05-12T10:22:16.136Z,5.38
2023-05-12T10:24:45.686Z,10.15
2023-05-12T10:27:15.917Z,7.50
2023-05-12T10:29:43.790Z,4.47
2023-05-12T10:32:11.458Z,3.92
2023-05-12T10:34:41.985Z,3.92
2023-05-12T10:37:11.550Z,10.68
2023-05-12T10:39:48.175Z,6.30
2023-05-12T10:42:23.096Z,8.07
2023-05-12T10:44:52.006Z,7.60
2023-05-12T10:47:26.759Z,24.80
2023-05-12T10:50:00.428Z,5.70
2023-05-12T10:52:27.791Z,6.03
2023-05-12T10:55:01.409Z,5.72
2023-05-12T10:57:30.844Z,6.38
2023-05-12T11:00:00.828Z,11.30
2023-05-12T11:02:36.048Z,4.72
2023-05-12T11:05:10.887Z,4.85
2023-05-12T11:07:39.801Z,4.72
2023-05-12T11:10:07.961Z,4.53
2023-05-12T11:12:36.653Z,4.53
2023-05-12T11:15:05.620Z,4.55
2023-05-12T11:17:33.335Z,5.40
2023-05-12T11:20:03.552Z,5.55
2023-05-12T11:22:30.848Z,6.95
2023-05-12T11:24:57.918Z,6.60
2023-05-12T11:27:26.260Z,5.03
2023-05-12T11:29:58.328Z,8.60
2023-05-12T11:32:26.242Z,8.95
2023-05-12T11:34:53.346Z,7.55
2023-05-12T11:37:21.417Z,5.30
2023-05-12T11:39:48.785Z,7.00
2023-05-12T11:42:20.120Z,6.38
2023-05-12T11:44:49.212Z,7.03
2023-05-12T11:47:19.045Z,11.73
2023-05-12T11:49:51.713Z,12.23
2023-05-12T11:52:20.747Z,9.88
2023-05-12T11:55:00.929Z,11.18
2023-05-12T11:57:33.519Z,5.32
2023-05-12T12:00:09.741Z,5.75
2023-05-12T12:02:38.885Z,9.77
2023-05-12T12:05:17.627Z,6.78
2023-05-12T12:07:45.172Z,6.28
2023-05-12T12:10:13.747Z,8.48
2023-05-12T12:12:42.031Z,6.70
2023-05-12T12:15:10.446Z,5.78
2023-05-12T12:17:38.411Z,5.35
2023-05-12T12:20:06.609Z,6.63
2023-05-12T12:22:34.606Z,4.57
2023-05-12T12:25:02.775Z,7.63
2023-05-12T12:27:30.348Z,5.32
2023-05-12T12:29:57.494Z,14.48
2023-05-12T12:32:24.887Z,10.45
2023-05-12T12:34:52.807Z,6.68
2023-05-12T12:37:20.437Z,9.10
2023-05-12T12:39:48.016Z,4.32
2023-05-12T12:42:15.805Z,8.73
2023-05-12T12:44:43.854Z,7.13
2023-05-12T12:47:11.307Z,5.13
2023-05-12T12:49:38.447Z,5.38
2023-05-12T12:52:06.194Z,5.38
2023-05-12T12:54:33.774Z,5.20
2023-05-12T12:57:01.274Z,7.40
2023-05-12T12:59:28.407Z,4.80
2023-05-12T13:01:55.762Z,7.70
2023-05-12T13:04:23.355Z,6.13
2023-05-12T13:06:50.712Z,4.80
2023-05-12T13:09:19.918Z,4.32
2023-05-12T13:11:48.101Z,6.18
2023-05-12T13:14:16.066Z,4.32
2023-05-12T13:16:43.550Z,5.00
2023-05-12T13:19:10.693Z,5.00
2023-05-12T13:21:39.150Z,3.90
2023-05-12T13:24:06.474Z,6.15
2023-05-12T13:26:34.192Z,4.75
2023-05-12T13:29:01.225Z,5.63
2023-05-12T13:31:28.813Z,6.68
2023-05-12T13:33:56.337Z,5.72
2023-05-12T13:36:23.722Z,4.25
2023-05-12T13:38:50.698Z,5.88
2023-05-12T13:41:17.969Z,4.35
2023-05-12T13:43:45.201Z,3.92
2023-05-12T13:46:12.883Z,5.90
2023-05-12T13:48:39.968Z,4.10
2023-05-12T13:51:07.504Z,6.78
2023-05-12T13:53:35.266Z,8.35
2023-05-12T13:56:16.638Z,4.55
2023-05-12T13:58:43.955Z,3.88
2023-05-12T14:01:12.108Z,4.72
2023-05-12T14:03:40.465Z,5.25
2023-05-12T14:06:08.316Z,6.93
2023-05-12T14:08:35.431Z,6.68
2023-05-12T14:11:02.914Z,5.28
2023-05-12T14:13:30.293Z,3.83
2023-05-12T14:15:57.796Z,4.20
2023-05-12T14:18:25.384Z,4.43
2023-05-12T14:20:52.941Z,5.35
2023-05-12T14:23:19.987Z,5.97
2023-05-12T14:25:47.439Z,4.05
2023-05-12T14:28:14.684Z,5.53
2023-05-12T14:30:43.660Z,4.28
2023-05-12T14:33:11.052Z,5.25
2023-05-12T14:35:38.538Z,3.75
2023-05-12T14:38:05.519Z,4.05
2023-05-12T14:40:32.946Z,5.32
2023-05-12T14:43:00.161Z,5.03
2023-05-12T14:45:28.802Z,5.18
2023-05-12T14:47:56.021Z,8.98
2023-05-12T14:50:24.107Z,4.80
2023-05-12T14:52:51.114Z,4.60
2023-05-12T14:55:18.507Z,9.02
2023-05-12T14:57:46.353Z,5.38
2023-05-12T15:00:15.272Z,7.45
2023-05-12T15:02:43.957Z,4.95
2023-05-12T15:05:13.911Z,5.47
2023-05-12T15:07:41.302Z,5.20
2023-05-12T15:10:08.977Z,7.70
2023-05-12T15:12:36.144Z,5.65
2023-05-12T15:15:08.787Z,3.47
2023-05-12T15:17:36.100Z,4.65
2023-05-12T15:20:04.430Z,4.70
2023-05-12T15:22:32.326Z,4.03
2023-05-12T15:25:00.136Z,4.55
2023-05-12T15:27:27.554Z,3.75
2023-05-12T15:29:54.907Z,6.90
2023-05-12T15:32:22.457Z,6.28
2023-05-12T15:34:50.178Z,4.90
2023-05-12T15:37:17.426Z,3.40
2023-05-12T15:39:45.052Z,4.03
2023-05-12T15:42:12.562Z,6.82
2023-05-12T15:44:41.969Z,5.22
2023-05-12T15:47:09.081Z,3.75
2023-05-12T15:49:36.430Z,4.00
2023-05-12T15:52:03.679Z,6.78
2023-05-12T15:54:31.050Z,3.92
2023-05-12T15:56:58.115Z,4.28
2023-05-12T15:59:26.225Z,6.05
2023-05-12T16:01:53.273Z,4.72
2023-05-12T16:04:20.855Z,5.00
2023-05-12T16:06:47.935Z,6.55
2023-05-12T16:09:15.414Z,6.30
2023-05-12T16:11:42.656Z,4.30
2023-05-12T16:14:10.022Z,4.88
2023-05-12T16:16:38.351Z,5.40
2023-05-12T16:19:05.823Z,4.78
2023-05-12T16:21:33.230Z,5.82
2023-05-12T16:24:00.552Z,4.05
2023-05-12T16:26:27.759Z,4.72
2023-05-12T16:28:55.289Z,5.97
2023-05-12T16:31:22.506Z,6.30
2023-05-12T16:33:49.993Z,5.32
2023-05-12T16:36:17.839Z,4.05
2023-05-12T16:38:46.472Z,5.45
2023-05-12T16:41:13.607Z,5.47
2023-05-12T16:43:41.015Z,6.43
2023-05-12T16:46:08.102Z,5.05
2023-05-12T16:48:36.286Z,5.53
2023-05-12T16:51:05.445Z,7.65
2023-05-12T16:53:33.692Z,5.80
2023-05-12T16:56:01.134Z,6.25
2023-05-12T16:58:32.542Z,5.28
2023-05-12T17:01:01.011Z,8.48
2023-05-12T17:03:29.440Z,5.95
2023-05-12T17:05:56.601Z,7.20
2023-05-12T17:08:24.867Z,10.40
2023-05-12T17:10:51.934Z,9.20
2023-05-12T17:13:19.391Z,8.80
2023-05-12T17:15:46.947Z,5.00
2023-05-12T17:18:14.313Z,12.77
2023-05-12T17:20:41.699Z,4.88
2023-05-12T17:23:09.266Z,4.93
2023-05-12T17:25:36.755Z,5.70
2023-05-12T17:28:04.705Z,4.78
2023-05-12T17:30:32.149Z,6.90
2023-05-12T17:32:59.620Z,5.70
2023-05-12T17:35:26.778Z,7.88
2023-05-12T17:37:55.511Z,7.07
2023-05-12T17:40:23.215Z,5.03
2023-05-12T17:42:50.600Z,9.30
2023-05-12T17:45:18.437Z,6.20
2023-05-12T17:47:46.299Z,8.18
2023-05-12T17:50:15.140Z,6.50
2023-05-12T17:52:43.592Z,6.40
2023-05-12T17:55:11.022Z,6.47
2023-05-12T17:57:38.549Z,6.25
2023-05-12T18:00:10.135Z,11.98
2023-05-12T18:02:44.974Z,7.68
2023-05-12T18:05:12.504Z,7.68
2023-05-12T18:07:40.117Z,11.32
2023-05-12T18:10:08.751Z,10.30
2023-05-12T18:12:36.651Z,13.27
2023-05-12T18:15:05.411Z,13.75
2023-05-12T18:17:32.937Z,11.48
2023-05-12T18:20:00.274Z,10.45
2023-05-12T18:22:27.646Z,8.00
2023-05-12T18:24:55.100Z,12.65
2023-05-12T18:27:22.428Z,9.35
2023-05-12T18:29:49.532Z,8.73
2023-05-12T18:32:16.956Z,10.77
2023-05-12T18:34:45.508Z,8.98
2023-05-12T18:37:15.522Z,8.55
2023-05-12T18:39:43.229Z,12.90
2023-05-12T18:42:11.502Z,9.68
2023-05-12T18:44:41.143Z,11.07
2023-05-12T18:47:08.961Z,12.75
2023-05-12T18:49:36.666Z,14.65
2023-05-12T18:52:04.505Z,16.35
2023-05-12T18:54:31.514Z,9.40
2023-05-12T18:56:58.850Z,9.68
2023-05-12T18:59:26.032Z,10.63
2023-05-12T19:01:53.415Z,23.55
2023-05-12T19:04:21.926Z,24.50
2023-05-12T19:06:49.460Z,19.10
2023-05-12T19:09:16.515Z,14.00
2023-05-12T19:11:44.340Z,14.90
2023-05-12T19:14:11.980Z,18.20
2023-05-12T19:16:39.948Z,19.25
2023-05-12T19:19:07.400Z,27.60
2023-05-12T19:21:34.933Z,34.28
2023-05-12T19:24:02.176Z,28.00
2023-05-12T19:26:29.763Z,30.05
2023-05-12T19:28:56.872Z,30.33
2023-05-12T19:31:24.468Z,35.22
2023-05-12T19:33:52.465Z,28.67
2023-05-12T19:36:19.891Z,44.78
2023-05-12T19:38:46.871Z,33.25
2023-05-12T19:41:14.184Z,35.15
2023-05-12T19:43:41.306Z,39.95
2023-05-12T19:46:08.651Z,31.40
2023-05-12T19:48:36.109Z,27.40
2023-05-12T19:51:03.546Z,27.25
2023-05-12T19:53:30.692Z,29.50
2023-05-12T19:55:58.345Z,32.95
2023-05-12T19:58:25.444Z,40.70
2023-05-12T20:00:54.383Z,36.80
2023-05-12T20:03:21.749Z,38.13
2023-05-12T20:05:49.365Z,34.47
2023-05-12T20:08:16.391Z,34.58
2023-05-12T20:10:43.755Z,36.28
2023-05-12T20:13:11.827Z,32.47
2023-05-12T20:15:40.128Z,33.45
2023-05-12T20:18:07.227Z,49.78
2023-05-12T20:20:34.633Z,37.72
2023-05-12T20:23:02.053Z,28.67
2023-05-12T20:25:32.481Z,30.75
2023-05-12T20:27:59.783Z,25.38
2023-05-12T20:30:27.492Z,26.02
2023-05-12T20:32:54.566Z,29.42
2023-05-12T20:35:22.130Z,30.95
2023-05-12T20:37:49.277Z,34.00
2023-05-12T20:40:16.764Z,29.77
2023-05-12T20:42:45.916Z,24.98
2023-05-12T20:45:14.009Z,36.55
2023-05-12T20:47:42.004Z,28.92
2023-05-12T20:50:09.985Z,32.55
2023-05-12T20:52:38.382Z,26.08
2023-05-12T20:55:06.945Z,20.33
2023-05-12T20:57:34.189Z,21.20
2023-05-12T21:00:01.599Z,19.30
2023-05-12T21:02:29.413Z,21.02
2023-05-12T21:04:57.004Z,20.00
2023-05-12T21:07:24.189Z,21.17
2023-05-12T21:09:51.486Z,21.63
2023-05-12T21:12:18.575Z,25.55
2023-05-12T21:14:45.841Z,22.55
2023-05-12T21:17:13.072Z,16.75
2023-05-12T21:19:41.434Z,22.75
2023-05-12T21:22:10.433Z,22.52
2023-05-12T21:24:39.431Z,20.65
2023-05-12T21:27:08.217Z,23.85
2023-05-12T21:29:36.467Z,17.98
2023-05-12T21:32:03.940Z,18.25
2023-05-12T21:34:33.725Z,18.90
2023-05-12T21:37:00.987Z,16.80
2023-05-12T21:39:28.378Z,17.67
2023-05-12T21:41:55.723Z,20.42
2023-05-12T21:44:23.401Z,23.33
2023-05-12T21:46:50.547Z,22.85
2023-05-12T21:49:17.943Z,26.45
2023-05-12T21:51:44.949Z,21.33
2023-05-12T21:54:12.488Z,21.90
2023-05-12T21:56:39.504Z,23.35
2023-05-12T21:59:07.020Z,20.70
2023-05-12T22:01:34.080Z,23.40
2023-05-12T22:04:01.541Z,31.13
2023-05-12T22:06:28.627Z,24.25
2023-05-12T22:08:56.135Z,18.17
2023-05-12T22:11:23.405Z,22.58
2023-05-12T22:13:51.178Z,20.08
2023-05-12T22:16:21.753Z,18.77
2023-05-12T22:18:53.247Z,17.17
2023-05-12T22:21:20.546Z,17.10
2023-05-12T22:23:47.972Z,17.70
2023-05-12T22:26:16.299Z,15.43
2023-05-12T22:28:43.725Z,18.13
2023-05-12T22:31:10.757Z,16.77
2023-05-12T22:33:38.201Z,14.57
2023-05-12T22:36:05.593Z,20.83
2023-05-12T22:38:33.169Z,16.17
2023-05-12T22:41:00.157Z,19.67
2023-05-12T22:43:28.125Z,16.15
2023-05-12T22:45:58.084Z,18.02
2023-05-12T22:48:25.657Z,27.65
2023-05-12T22:50:55.759Z,20.73
2023-05-12T22:53:23.068Z,16.45
2023-05-12T22:55:50.071Z,20.00
2023-05-12T22:58:17.394Z,17.38
2023-05-12T23:00:44.428Z,15.15
2023-05-12T23:03:11.956Z,17.45
2023-05-12T23:05:39.086Z,16.75
2023-05-12T23:08:06.334Z,18.40
2023-05-12T23:10:33.354Z,22.40
2023-05-12T23:13:00.937Z,16.40
2023-05-12T23:15:27.939Z,14.82
2023-05-12T23:17:55.355Z,18.90
2023-05-12T23:20:22.726Z,18.08
2023-05-12T23:22:50.156Z,18.45
2023-05-12T23:25:17.233Z,17.58
2023-05-12T23:27:44.556Z,16.20
2023-05-12T23:30:12.097Z,17.10
2023-05-12T23:32:39.716Z,18.08
2023-05-12T23:35:07.880Z,17.13
2023-05-12T23:37:35.582Z,24.73
2023-05-12T23:40:03.952Z,20.20
2023-05-12T23:42:31.268Z,20.90
2023-05-12T23:44:58.320Z,17.13
2023-05-12T23:47:25.958Z,14.50
2023-05-12T23:49:53.080Z,19.60
2023-05-12T23:52:20.463Z,20.80
2023-05-12T23:54:47.491Z,15.20
2023-05-12T23:57:14.798Z,18.52
2023-05-12T23:59:41.816Z,13.52
